Time;durP1;ratioP1;P1;durP2;ratioP2;P2;SDS_P1;SDS_P2;PMS_P1;PMS_P2;Temp;Humidity;BMP_temperature;BMP_pressure;BME280_temperature;BME280_humidity;BME280_pressure;Samples;Min_cycle;Max_cycle;Signal;HPM_P1;HPM_P2
2023/09/08 00:00:41;;;;;;;14.65;13.25;;;18.70;99.90;;;;;;4998285;28;90206;-38
2023/09/08 00:03:06;;;;;;;13.93;12.60;;;18.60;99.90;;;;;;4985302;28;90879;-33
2023/09/08 00:05:32;;;;;;;14.32;12.65;;;18.60;99.90;;;;;;4998566;28;90537;-38
2023/09/08 00:07:57;;;;;;;13.30;12.07;;;18.60;99.90;;;;;;5000142;28;89584;-32
2023/09/08 00:10:23;;;;;;;15.90;13.60;;;18.50;99.90;;;;;;4998205;28;90156;-31
2023/09/08 00:12:49;;;;;;;13.10;11.93;;;18.50;99.90;;;;;;4999501;28;90472;-37
2023/09/08 00:15:14;;;;;;;13.90;12.32;;;18.50;99.90;;;;;;4998320;28;89460;-37
2023/09/08 00:17:40;;;;;;;13.93;12.18;;;18.40;99.90;;;;;;4999269;28;88837;-37
2023/09/08 00:20:10;;;;;;;18.52;11.90;;;18.40;99.90;;;;;;4999248;28;90630;-34
2023/09/08 00:22:37;;;;;;;13.00;11.73;;;18.40;99.90;;;;;;4986644;28;89989;-32
2023/09/08 00:25:03;;;;;;;12.95;11.70;;;18.40;99.90;;;;;;4998070;28;89945;-38
2023/09/08 00:27:31;;;;;;;13.73;12.30;;;18.30;99.90;;;;;;4998091;28;89152;-36
2023/09/08 00:29:56;;;;;;;14.37;13.07;;;17.40;99.90;;;;;;4998929;28;90117;-35
2023/09/08 00:32:22;;;;;;;14.20;12.90;;;18.30;99.90;;;;;;4990178;28;89663;-37
2023/09/08 00:34:48;;;;;;;14.02;12.48;;;18.30;99.90;;;;;;4989788;28;89303;-35
2023/09/08 00:37:13;;;;;;;13.82;12.43;;;18.30;99.90;;;;;;4989620;28;88247;-34
2023/09/08 00:39:39;;;;;;;12.30;11.10;;;18.30;99.90;;;;;;4997954;28;90493;-35
2023/09/08 00:42:06;;;;;;;16.67;13.68;;;18.20;99.90;;;;;;4998992;28;89537;-35
2023/09/08 00:44:32;;;;;;;14.57;13.18;;;18.20;99.90;;;;;;4986489;28;90657;-36
2023/09/08 00:46:58;;;;;;;16.67;12.55;;;18.10;99.90;;;;;;4998485;28;89144;-38
2023/09/08 00:49:24;;;;;;;13.63;12.35;;;18.10;99.90;;;;;;4985495;28;90171;-35
2023/09/08 00:51:50;;;;;;;14.57;13.05;;;;;;;;;;4997592;28;90339;-31
2023/09/08 00:54:16;;;;;;;21.42;13.60;;;17.90;99.90;;;;;;4998562;28;90716;-37
2023/09/08 00:56:42;;;;;;;13.68;12.43;;;17.80;99.90;;;;;;4998737;28;89897;-33
2023/09/08 00:59:09;;;;;;;13.82;12.48;;;17.80;99.90;;;;;;4997251;28;90444;-36
2023/09/08 01:01:34;;;;;;;15.00;13.07;;;17.80;99.90;;;;;;4990970;28;90219;-33
2023/09/08 01:04:01;;;;;;;13.23;12.02;;;17.80;99.90;;;;;;4991843;28;89601;-35
2023/09/08 01:06:27;;;;;;;19.65;13.38;;;17.80;99.90;;;;;;4998878;28;89298;-37
2023/09/08 01:08:54;;;;;;;15.35;13.45;;;17.70;99.90;;;;;;4998713;28;90350;-31
2023/09/08 01:11:21;;;;;;;13.55;11.85;;;17.70;99.90;;;;;;4997729;28;89010;-35
2023/09/08 01:13:47;;;;;;;13.52;12.32;;;17.60;99.90;;;;;;4997346;28;90016;-38
2023/09/08 01:16:13;;;;;;;13.73;12.30;;;17.60;99.90;;;;;;4997882;28;88864;-33
2023/09/08 01:18:38;;;;;;;16.98;14.20;;;17.60;99.90;;;;;;4998125;28;90731;-32
2023/09/08 01:21:40;;;;;;;15.10;13.50;;;17.50;99.90;;;;;;4998618;28;88633;-36
2023/09/08 01:24:35;;;;;;;15.65;13.45;;;17.50;99.90;;;;;;4985199;28;90161;-33
2023/09/08 01:27:01;;;;;;;14.07;12.75;;;17.50;99.90;;;;;;4997705;28;90312;-33
2023/09/08 01:29:28;;;;;;;13.13;11.88;;;17.50;99.90;;;;;;4998196;28;90175;-34
2023/09/08 01:31:55;;;;;;;12.95;11.68;;;17.40;99.90;;;;;;4996663;28;90312;-35
2023/09/08 01:34:21;;;;;;;15.25;13.75;;;17.40;99.90;;;;;;4996468;28;89481;-36
2023/09/08 01:36:46;;;;;;;14.60;13.30;;;17.30;99.90;;;;;;4985610;28;88949;-32
2023/09/08 01:39:12;;;;;;;16.85;15.07;;;17.30;99.90;;;;;;4996827;28;90211;-35
2023/09/08 01:41:37;;;;;;;14.57;13.18;;;17.30;99.90;;;;;;4997868;28;89608;-36
2023/09/08 01:44:07;;;;;;;16.38;14.77;;;17.40;99.90;;;;;;4997170;28;89734;-33
2023/09/08 01:46:34;;;;;;;15.13;13.57;;;17.40;99.90;;;;;;5001000;28;87697;-35
2023/09/08 01:49:00;;;;;;;15.02;13.52;;;17.30;99.90;;;;;;5001054;28;88389;-37
2023/09/08 01:51:25;;;;;;;13.95;12.55;;;17.20;99.90;;;;;;5001001;28;91772;-33
2023/09/08 01:53:51;;;;;;;15.88;14.35;;;17.20;99.90;;;;;;5000650;28;89290;-34
2023/09/08 01:56:16;;;;;;;17.13;13.27;;;17.10;99.90;;;;;;5001357;28;88366;-37
2023/09/08 01:58:42;;;;;;;13.25;11.95;;;17.10;99.90;;;;;;5000173;28;90218;-37
2023/09/08 02:01:08;;;;;;;12.43;11.20;;;17.10;99.90;;;;;;4997574;28;89826;-34
2023/09/08 02:03:33;;;;;;;14.52;13.23;;;17.00;99.90;;;;;;4991975;28;90094;-35
2023/09/08 02:05:59;;;;;;;14.27;12.68;;;17.00;99.90;;;;;;4996722;28;89193;-33
2023/09/08 02:08:25;;;;;;;15.05;13.50;;;17.00;99.90;;;;;;4992900;28;90744;-30
2023/09/08 02:10:50;;;;;;;15.93;14.23;;;17.00;99.90;;;;;;5000543;28;89715;-33
2023/09/08 02:13:16;;;;;;;14.55;13.02;;;17.00;99.90;;;;;;5001258;28;90067;-38
2023/09/08 02:15:41;;;;;;;15.13;13.57;;;16.90;99.90;;;;;;5000029;28;88810;-34
2023/09/08 02:18:08;;;;;;;16.27;14.40;;;16.90;99.90;;;;;;5000977;28;90392;-38
2023/09/08 02:20:33;;;;;;;14.65;12.90;;;16.90;99.90;;;;;;5000615;28;91107;-35
2023/09/08 02:23:04;;;;;;;14.90;13.43;;;16.90;99.90;;;;;;5001119;28;89355;-37
2023/09/08 02:25:30;;;;;;;15.90;14.15;;;16.90;99.90;;;;;;5000004;28;89311;-33
2023/09/08 02:27:56;;;;;;;15.95;14.52;;;16.90;99.90;;;;;;5000013;28;90343;-37
2023/09/08 02:30:21;;;;;;;15.57;14.07;;;16.90;99.90;;;;;;4999458;28;92280;-34
2023/09/08 02:32:47;;;;;;;15.73;14.13;;;16.80;99.90;;;;;;5000579;28;90970;-31
2023/09/08 02:35:13;;;;;;;15.85;14.32;;;16.80;99.90;;;;;;4993386;28;88284;-31
2023/09/08 02:37:38;;;;;;;15.45;14.00;;;16.80;99.90;;;;;;4994657;28;90229;-32
2023/09/08 02:40:06;;;;;;;16.50;15.00;;;16.70;99.90;;;;;;5000488;28;89685;-35
2023/09/08 02:42:31;;;;;;;18.90;15.47;;;16.70;99.90;;;;;;4999824;28;89098;-32
2023/09/08 02:44:57;;;;;;;16.10;14.60;;;16.60;99.90;;;;;;5000111;28;89912;-32
2023/09/08 02:47:22;;;;;;;15.93;13.98;;;16.60;99.90;;;;;;5000313;28;90108;-33
2023/09/08 02:49:48;;;;;;;16.58;14.80;;;16.60;99.90;;;;;;4999947;28;89772;-34
2023/09/08 02:52:14;;;;;;;19.10;17.13;;;16.50;99.90;;;;;;4999828;28;89334;-32
2023/09/08 02:54:39;;;;;;;16.65;14.82;;;16.50;99.90;;;;;;4999837;28;89551;-38
2023/09/08 02:57:05;;;;;;;18.15;16.33;;;16.50;99.90;;;;;;4999035;28;90642;-36
2023/09/08 02:59:31;;;;;;;14.43;12.95;;;16.50;99.90;;;;;;5000247;28;89636;-32
2023/09/08 03:01:56;;;;;;;18.83;14.13;;;16.50;99.90;;;;;;4999123;28;89862;-39
2023/09/08 03:04:22;;;;;;;14.95;13.43;;;16.40;99.90;;;;;;5000101;28;88863;-33
2023/09/08 03:06:47;;;;;;;16.45;14.85;;;16.40;99.90;;;;;;4999832;28;90412;-34
2023/09/08 03:09:13;;;;;;;15.77;14.15;;;16.40;99.90;;;;;;5000366;28;90055;-32
2023/09/08 03:11:39;;;;;;;16.42;14.93;;;16.40;99.90;;;;;;5000427;28;88635;-32
2023/09/08 03:14:04;;;;;;;15.23;13.65;;;16.30;99.90;;;;;;4999307;28;88021;-37
2023/09/08 03:16:30;;;;;;;14.93;13.43;;;16.30;99.90;;;;;;4999768;28;90821;-35
2023/09/08 03:18:56;;;;;;;15.73;14.23;;;16.30;99.90;;;;;;4999126;28;90097;-35
2023/09/08 03:21:21;;;;;;;16.58;15.00;;;16.20;99.90;;;;;;4999788;28;90207;-31
2023/09/08 03:23:47;;;;;;;18.00;16.20;;;16.20;99.90;;;;;;4999459;28;89376;-33
2023/09/08 03:26:13;;;;;;;19.35;16.55;;;16.20;99.90;;;;;;4999610;28;89817;-34
2023/09/08 03:28:39;;;;;;;20.77;18.85;;;16.20;99.90;;;;;;4999572;28;89631;-34
2023/09/08 03:31:05;;;;;;;19.75;17.73;;;16.20;99.90;;;;;;4999604;28;89146;-31
2023/09/08 03:33:31;;;;;;;18.63;16.77;;;16.30;99.90;;;;;;4999801;28;88505;-31
2023/09/08 03:35:56;;;;;;;17.08;15.40;;;16.30;99.90;;;;;;4985852;28;89890;-33
2023/09/08 03:38:23;;;;;;;20.52;18.30;;;16.30;99.90;;;;;;4999305;28;89772;-35
2023/09/08 03:40:49;;;;;;;19.27;17.55;;;16.30;99.90;;;;;;4999487;28;89403;-34
2023/09/08 03:43:15;;;;;;;20.33;16.60;;;16.30;99.90;;;;;;4998534;28;90397;-40
2023/09/08 03:45:41;;;;;;;16.67;15.07;;;16.30;99.90;;;;;;4999225;28;90235;-35
2023/09/08 03:48:06;;;;;;;17.65;15.90;;;16.30;99.90;;;;;;4998774;28;89094;-33
2023/09/08 03:50:32;;;;;;;18.30;16.50;;;16.30;99.90;;;;;;4998980;28;89565;-34
2023/09/08 03:52:58;;;;;;;17.83;15.95;;;16.30;99.90;;;;;;4999225;28;89051;-35
2023/09/08 03:55:24;;;;;;;18.35;16.60;;;16.20;99.90;;;;;;4999107;28;89889;-38
2023/09/08 03:57:49;;;;;;;18.42;16.58;;;16.30;99.90;;;;;;4999441;28;88551;-32
2023/09/08 04:00:21;;;;;;;20.15;17.35;;;16.20;99.90;;;;;;4995160;28;89806;-37
2023/09/08 04:02:47;;;;;;;18.88;17.15;;;16.20;99.90;;;;;;4988534;28;88883;-33
2023/09/08 04:05:12;;;;;;;18.38;16.55;;;16.20;99.90;;;;;;4988939;28;89620;-39
2023/09/08 04:07:38;;;;;;;18.00;16.10;;;16.10;99.90;;;;;;4983811;28;90816;-32
2023/09/08 04:10:04;;;;;;;19.23;16.85;;;16.20;99.90;;;;;;4986778;28;91100;-34
2023/09/08 04:12:30;;;;;;;21.38;16.77;;;16.20;99.90;;;;;;4997504;28;89501;-38
2023/09/08 04:14:55;;;;;;;18.08;16.17;;;16.20;99.90;;;;;;4996246;28;89745;-37
2023/09/08 04:17:21;;;;;;;17.83;16.10;;;16.20;99.90;;;;;;4998144;28;89937;-37
2023/09/08 04:19:46;;;;;;;17.95;16.13;;;16.20;99.90;;;;;;4998962;28;90510;-33
2023/09/08 04:22:12;;;;;;;18.88;16.98;;;16.20;99.90;;;;;;4998154;28;88200;-36
2023/09/08 04:24:38;;;;;;;18.30;16.50;;;16.20;99.90;;;;;;4997894;28;90135;-32
2023/09/08 04:27:04;;;;;;;17.80;16.00;;;16.20;99.90;;;;;;4996339;28;88837;-32
2023/09/08 04:29:29;;;;;;;17.50;15.73;;;16.20;99.90;;;;;;4996625;28;89690;-33
2023/09/08 04:31:55;;;;;;;20.75;17.00;;;16.20;99.90;;;;;;4997165;28;89075;-33
2023/09/08 04:34:21;;;;;;;18.23;15.52;;;16.10;99.90;;;;;;4998271;28;90852;-32
2023/09/08 04:36:46;;;;;;;17.98;15.45;;;16.10;99.90;;;;;;4995779;28;89898;-32
2023/09/08 04:39:12;;;;;;;17.08;15.38;;;16.10;99.90;;;;;;4988152;28;89767;-35
2023/09/08 04:41:38;;;;;;;17.38;15.63;;;16.10;99.90;;;;;;4998748;28;90076;-32
2023/09/08 04:44:04;;;;;;;18.05;16.25;;;16.10;99.90;;;;;;4997813;28;89923;-32
2023/09/08 04:46:30;;;;;;;16.98;15.30;;;16.10;99.90;;;;;;4998588;28;90291;-34
2023/09/08 04:48:56;;;;;;;18.90;15.48;;;16.10;99.90;;;;;;4999016;28;89544;-36
2023/09/08 04:51:21;;;;;;;18.80;16.88;;;16.10;99.90;;;;;;4997417;28;88563;-32
2023/09/08 04:53:47;;;;;;;20.15;18.15;;;16.10;99.90;;;;;;4998252;28;90201;-32
2023/09/08 04:56:14;;;;;;;19.85;17.85;;;16.10;99.90;;;;;;4996809;28;90556;-34
2023/09/08 04:58:39;;;;;;;19.00;17.02;;;16.20;99.90;;;;;;4998337;28;90270;-32
2023/09/08 05:01:05;;;;;;;19.38;16.52;;;16.10;99.90;;;;;;4993799;28;88175;-32
2023/09/08 05:03:31;;;;;;;20.10;18.02;;;16.20;99.90;;;;;;4977637;28;90802;-32
2023/09/08 05:05:57;;;;;;;18.13;16.42;;;16.20;99.90;;;;;;4994977;28;89647;-33
2023/09/08 05:08:23;;;;;;;19.27;17.48;;;16.20;99.90;;;;;;4997892;28;89079;-34
2023/09/08 05:10:49;;;;;;;19.42;17.42;;;16.20;99.90;;;;;;4998307;28;88406;-32
2023/09/08 05:13:16;;;;;;;18.30;15.60;;;16.20;99.90;;;;;;4998833;28;90203;-33
2023/09/08 05:15:43;;;;;;;20.55;18.25;;;16.20;99.90;;;;;;4984605;28;89259;-36
2023/09/08 05:18:09;;;;;;;20.95;17.60;;;16.20;99.90;;;;;;4997574;28;90186;-33
2023/09/08 05:20:35;;;;;;;20.30;17.85;;;16.20;99.90;;;;;;4996672;28;90071;-36
2023/09/08 05:23:00;;;;;;;18.13;16.20;;;16.20;99.90;;;;;;4997812;28;90391;-33
2023/09/08 05:25:26;;;;;;;18.95;16.52;;;16.20;99.90;;;;;;4997352;28;90214;-35
2023/09/08 05:27:51;;;;;;;19.50;17.40;;;16.20;99.90;;;;;;4997521;28;89526;-33
2023/09/08 05:30:17;;;;;;;20.27;17.90;;;16.20;99.90;;;;;;4997779;28;88742;-33
2023/09/08 05:32:43;;;;;;;19.13;16.05;;;16.30;99.90;;;;;;4997231;28;92047;-33
2023/09/08 05:35:08;;;;;;;22.17;16.77;;;16.30;99.90;;;;;;4994938;28;89825;-34
2023/09/08 05:37:34;;;;;;;19.85;16.67;;;16.30;99.90;;;;;;4997840;28;89375;-37
2023/09/08 05:40:00;;;;;;;17.17;15.52;;;16.30;99.90;;;;;;4997422;28;88731;-36
2023/09/08 05:42:25;;;;;;;19.05;17.25;;;16.30;99.90;;;;;;4997235;28;88891;-34
2023/09/08 05:44:51;;;;;;;18.23;16.55;;;16.30;99.90;;;;;;4997149;28;91976;-33
2023/09/08 05:47:17;;;;;;;19.17;17.40;;;16.40;99.90;;;;;;4997580;28;89498;-36
2023/09/08 05:49:42;;;;;;;17.88;16.30;;;16.40;99.90;;;;;;4997742;28;89921;-31
2023/09/08 05:52:08;;;;;;;17.60;15.85;;;16.40;99.90;;;;;;4997006;28;88730;-37
2023/09/08 05:54:34;;;;;;;17.33;15.70;;;16.40;99.90;;;;;;4997492;28;89731;-34
2023/09/08 05:56:59;;;;;;;18.48;16.63;;;16.40;99.90;;;;;;4997087;28;89483;-34
2023/09/08 05:59:25;;;;;;;19.98;18.00;;;16.50;99.90;;;;;;4996935;28;90198;-34
2023/09/08 06:01:50;;;;;;;18.20;16.05;;;16.50;99.90;;;;;;4987951;28;90102;-32
2023/09/08 06:04:16;;;;;;;16.65;14.98;;;16.50;99.90;;;;;;4993819;28;88696;-34
2023/09/08 06:06:42;;;;;;;18.45;16.52;;;16.60;99.90;;;;;;4997866;28;88164;-33
2023/09/08 06:09:08;;;;;;;17.05;15.27;;;16.60;99.90;;;;;;4995547;28;90069;-33
2023/09/08 06:11:34;;;;;;;21.75;17.60;;;16.60;99.90;;;;;;4997658;28;90714;-33
2023/09/08 06:14:00;;;;;;;19.05;16.80;;;16.70;99.90;;;;;;4997457;28;89804;-34
2023/09/08 06:16:26;;;;;;;18.27;16.58;;;16.70;99.90;;;;;;4997519;28;89571;-33
2023/09/08 06:18:52;;;;;;;19.65;16.17;;;16.70;99.90;;;;;;4993238;28;89256;-35
2023/09/08 06:21:17;;;;;;;18.45;16.02;;;16.70;99.90;;;;;;4992213;28;90889;-33
2023/09/08 06:23:43;;;;;;;18.40;15.65;;;16.80;99.90;;;;;;4995031;28;90441;-36
2023/09/08 06:26:08;;;;;;;17.60;15.27;;;16.80;99.90;;;;;;4987975;28;91448;-35
2023/09/08 06:28:35;;;;;;;18.67;16.17;;;16.90;99.90;;;;;;4995161;28;88908;-34
2023/09/08 06:31:01;;;;;;;18.98;17.00;;;16.90;99.90;;;;;;4996544;28;90015;-34
2023/09/08 06:33:26;;;;;;;18.70;15.48;;;17.00;99.90;;;;;;4995935;28;90438;-36
2023/09/08 06:35:53;;;;;;;17.00;15.15;;;17.10;99.90;;;;;;4985341;28;90569;-35
2023/09/08 06:38:19;;;;;;;17.60;15.88;;;17.10;99.90;;;;;;4985447;28;89618;-33
2023/09/08 06:40:45;;;;;;;19.10;17.25;;;17.20;99.90;;;;;;4998192;28;90672;-36
2023/09/08 06:43:10;;;;;;;19.00;17.08;;;17.20;99.90;;;;;;4997635;28;90331;-38
2023/09/08 06:45:41;;;;;;;17.08;15.32;;;17.20;99.90;;;;;;4984071;28;89445;-37
2023/09/08 06:48:07;;;;;;;18.60;16.70;;;17.40;99.90;;;;;;4997286;28;88492;-38
2023/09/08 06:50:33;;;;;;;19.40;16.85;;;17.50;99.90;;;;;;4997054;28;90093;-34
2023/09/08 06:53:00;;;;;;;17.88;16.10;;;17.60;99.90;;;;;;4998258;28;89711;-33
2023/09/08 06:55:26;;;;;;;20.55;16.70;;;17.70;99.90;;;;;;4997420;28;89523;-34
2023/09/08 06:57:51;;;;;;;22.77;16.23;;;17.90;99.90;;;;;;4997196;28;90003;-33
2023/09/08 07:00:20;;;;;;;18.15;16.30;;;18.00;99.90;;;;;;4995098;28;89376;-37
2023/09/08 07:02:46;;;;;;;17.42;15.80;;;18.30;99.90;;;;;;4984044;28;89138;-35
2023/09/08 07:05:11;;;;;;;17.95;16.02;;;18.50;99.90;;;;;;4997045;28;89662;-35
2023/09/08 07:07:37;;;;;;;19.15;17.15;;;18.50;99.90;;;;;;4998470;28;89268;-33
2023/09/08 07:10:04;;;;;;;18.75;16.55;;;18.70;99.90;;;;;;4997192;28;90133;-31
2023/09/08 07:12:30;;;;;;;20.42;18.15;;;18.90;99.90;;;;;;4996457;28;89607;-33
2023/09/08 07:14:56;;;;;;;16.33;14.63;;;19.00;99.90;;;;;;4997386;28;90860;-34
2023/09/08 07:17:23;;;;;;;17.30;14.48;;;19.20;99.90;;;;;;4992713;28;89342;-34
2023/09/08 07:19:49;;;;;;;17.50;15.88;;;19.50;99.90;;;;;;4989647;28;89734;-36
2023/09/08 07:22:15;;;;;;;17.58;15.82;;;19.60;99.90;;;;;;4995365;28;90078;-35
2023/09/08 07:24:40;;;;;;;18.88;16.08;;;19.80;99.90;;;;;;4997677;28;90468;-36
2023/09/08 07:27:06;;;;;;;21.05;16.35;;;20.00;99.90;;;;;;4995457;28;88974;-34
2023/09/08 07:29:32;;;;;;;16.45;14.82;;;20.20;99.90;;;;;;4997697;28;91319;-34
2023/09/08 07:31:58;;;;;;;15.30;13.73;;;20.40;99.90;;;;;;4996780;28;89547;-33
2023/09/08 07:34:23;;;;;;;15.77;14.25;;;20.60;99.90;;;;;;4994641;28;89736;-34
2023/09/08 07:36:49;;;;;;;15.43;13.93;;;20.70;99.90;;;;;;4984978;28;89496;-32
2023/09/08 07:39:15;;;;;;;15.68;14.18;;;20.90;99.90;;;;;;4996394;28;89376;-32
2023/09/08 07:41:41;;;;;;;20.85;15.52;;;21.00;99.90;;;;;;4996108;28;89095;-37
2023/09/08 07:44:07;;;;;;;17.60;15.75;;;21.10;99.90;;;;;;4996055;28;89013;-32
2023/09/08 07:46:33;;;;;;;13.30;12.00;;;21.10;99.90;;;;;;4996599;28;89808;-33
2023/09/08 07:48:59;;;;;;;15.98;14.52;;;21.40;99.90;;;;;;4995743;28;90259;-39
2023/09/08 07:51:26;;;;;;;16.33;14.75;;;21.50;99.90;;;;;;4996913;28;89269;-33
2023/09/08 07:53:53;;;;;;;16.17;14.45;;;21.70;99.90;;;;;;4995899;28;89630;-36
2023/09/08 07:56:19;;;;;;;16.85;15.23;;;21.80;99.90;;;;;;4996157;28;89087;-33
2023/09/08 07:58:44;;;;;;;15.57;13.93;;;22.00;99.90;;;;;;4996298;28;90810;-37
2023/09/08 08:01:10;;;;;;;15.05;12.88;;;22.20;99.90;;;;;;4991283;28;89826;-34
2023/09/08 08:03:36;;;;;;;14.55;13.15;;;22.30;99.90;;;;;;4987785;28;89860;-35
2023/09/08 08:06:02;;;;;;;13.93;12.63;;;22.50;99.90;;;;;;4997076;28;89851;-32
2023/09/08 08:08:27;;;;;;;14.02;12.55;;;22.80;99.90;;;;;;4996661;28;90228;-36
2023/09/08 08:10:53;;;;;;;13.88;12.48;;;23.00;99.90;;;;;;4994559;28;91132;-35
2023/09/08 08:13:19;;;;;;;13.48;12.18;;;23.10;99.90;;;;;;4995324;28;88982;-36
2023/09/08 08:15:49;;;;;;;13.30;11.75;;;23.40;99.90;;;;;;4997020;28;88344;-37
2023/09/08 08:18:15;;;;;;;11.32;10.32;;;23.50;99.90;;;;;;4995930;28;91432;-32
2023/09/08 08:20:41;;;;;;;15.43;11.48;;;23.80;99.90;;;;;;4996446;28;89227;-35
2023/09/08 08:23:07;;;;;;;12.85;11.10;;;23.90;99.90;;;;;;4996015;28;89666;-39
2023/09/08 08:25:33;;;;;;;13.85;11.40;;;24.10;99.90;;;;;;4995827;28;88468;-36
2023/09/08 08:28:00;;;;;;;12.30;11.00;;;24.30;99.90;;;;;;4996222;28;90357;-33
2023/09/08 08:30:27;;;;;;;14.20;10.70;;;24.20;99.90;;;;;;4995349;28;89579;-35
2023/09/08 08:32:53;;;;;;;17.10;10.48;;;24.30;99.90;;;;;;5026969;22;89904;-37
2023/09/08 08:35:20;;;;;;;12.80;11.10;;;24.30;99.90;;;;;;4984196;28;89140;-33
2023/09/08 08:37:45;;;;;;;11.27;10.15;;;24.60;99.90;;;;;;4995984;28;89438;-36
2023/09/08 08:40:15;;;;;;;11.88;10.68;;;24.80;99.90;;;;;;4995432;28;90078;-34
2023/09/08 08:42:42;;;;;;;14.07;10.32;;;24.90;99.90;;;;;;4996341;28;89670;-36
2023/09/08 08:45:08;;;;;;;11.77;9.02;;;25.10;99.90;;;;;;4996218;28;89727;-34
2023/09/08 08:47:34;;;;;;;8.73;7.82;;;25.30;99.90;;;;;;4996132;28;90071;-33
2023/09/08 08:50:01;;;;;;;9.27;8.55;;;25.40;99.90;;;;;;4996567;28;88951;-34
2023/09/08 08:52:28;;;;;;;9.23;7.87;;;25.50;99.90;;;;;;4992315;28;89683;-32
2023/09/08 08:54:55;;;;;;;9.77;8.13;;;25.60;99.90;;;;;;4986434;28;88907;-35
2023/09/08 08:57:21;;;;;;;11.35;8.55;;;25.70;99.90;;;;;;4996482;28;90435;-35
2023/09/08 08:59:49;;;;;;;7.82;7.07;;;25.80;99.90;;;;;;4995547;28;90536;-33
2023/09/08 09:02:15;;;;;;;8.20;7.50;;;25.90;99.90;;;;;;4995655;28;90655;-35
2023/09/08 09:04:41;;;;;;;7.78;7.10;;;25.90;99.90;;;;;;4996679;28;89502;-33
2023/09/08 09:07:07;;;;;;;10.57;7.25;;;25.90;99.90;;;;;;4996331;28;90391;-36
2023/09/08 09:09:34;;;;;;;10.70;8.80;;;26.20;99.90;;;;;;4995875;28;89866;-33
2023/09/08 09:11:59;;;;;;;7.97;7.13;;;26.10;99.90;;;;;;4996672;28;90107;-33
2023/09/08 09:14:25;;;;;;;7.43;6.75;;;26.20;99.90;;;;;;4996028;28;90319;-33
2023/09/08 09:16:51;;;;;;;9.35;7.80;;;26.30;99.90;;;;;;4995929;28;89924;-36
2023/09/08 09:19:31;;;;;;;7.90;7.18;;;26.30;99.90;;;;;;4994234;28;89770;-34
2023/09/08 09:21:58;;;;;;;7.75;7.03;;;26.40;99.90;;;;;;4995645;28;89482;-35
2023/09/08 09:24:36;;;;;;;8.27;7.47;;;26.50;99.90;;;;;;4994607;28;90359;-32
2023/09/08 09:27:06;;;;;;;9.77;7.07;;;26.70;99.90;;;;;;4995321;28;90276;-35
2023/09/08 09:29:33;;;;;;;15.55;7.45;;;26.80;99.90;;;;;;4995116;28;90717;-31
2023/09/08 09:32:05;;;;;;;9.23;7.13;;;26.80;99.90;;;;;;4994787;28;89179;-33
2023/09/08 09:34:31;;;;;;;7.43;6.65;;;26.80;96.20;;;;;;4995202;28;88100;-31
2023/09/08 09:36:57;;;;;;;7.75;6.95;;;26.70;97.80;;;;;;4995506;28;90315;-35
2023/09/08 09:39:24;;;;;;;7.65;7.05;;;26.80;95.90;;;;;;4992479;28;89829;-33
2023/09/08 09:41:54;;;;;;;10.50;6.85;;;26.90;99.00;;;;;;4995074;28;89226;-39
2023/09/08 09:44:20;;;;;;;7.97;7.28;;;27.20;98.50;;;;;;4995764;28;89419;-37
2023/09/08 09:46:47;;;;;;;8.10;6.72;;;27.20;92.00;;;;;;4976812;28;90007;-33
2023/09/08 09:49:17;;;;;;;6.82;6.15;;;27.30;94.20;;;;;;4994276;28;90236;-34
2023/09/08 09:51:50;;;;;;;8.35;7.55;;;27.40;94.20;;;;;;4986040;28;90131;-36
2023/09/08 09:54:16;;;;;;;9.48;7.18;;;27.40;85.00;;;;;;4995462;28;89670;-35
2023/09/08 09:56:43;;;;;;;14.63;7.50;;;27.60;92.20;;;;;;4996090;28;90042;-35
2023/09/08 09:59:11;;;;;;;7.25;6.63;;;27.60;90.90;;;;;;4993836;28;89640;-33
2023/09/08 10:01:37;;;;;;;;;;;27.70;90.30;;;;;;4994848;28;89385;-37
2023/09/08 10:04:04;;;;;;;6.72;6.05;;;27.90;86.10;;;;;;4996776;28;90480;-33
2023/09/08 10:06:34;;;;;;;13.82;6.30;;;27.70;81.20;;;;;;4998144;28;89844;-33
2023/09/08 10:09:04;;;;;;;8.60;6.55;;;27.80;79.30;;;;;;4997815;28;90577;-34
2023/09/08 10:12:00;;;;;;;7.35;6.65;;;27.90;79.50;;;;;;4998094;28;90292;-35
2023/09/08 10:14:28;;;;;;;5.90;5.43;;;27.90;80.70;;;;;;4984624;28;88950;-36
2023/09/08 10:16:59;;;;;;;7.28;6.53;;;28.10;80.50;;;;;;4997571;28;89956;-35
2023/09/08 10:19:26;;;;;;;7.85;6.30;;;28.20;81.50;;;;;;4998437;28;89684;-33
2023/09/08 10:21:59;;;;;;;8.27;5.82;;;28.10;82.50;;;;;;4998485;28;90650;-37
2023/09/08 10:24:32;;;;;;;7.80;6.90;;;28.10;76.60;;;;;;4997552;28;89418;-33
2023/09/08 10:27:11;;;;;;;8.50;6.95;;;28.10;79.40;;;;;;4998323;28;90464;-32
2023/09/08 10:29:38;;;;;;;6.25;5.75;;;28.20;81.60;;;;;;4998813;28;89868;-35
2023/09/08 10:32:05;;;;;;;9.60;6.77;;;28.20;78.50;;;;;;4997533;28;89476;-34
2023/09/08 10:34:32;;;;;;;6.73;6.13;;;28.40;78.00;;;;;;4997217;28;87712;-36
2023/09/08 10:36:58;;;;;;;10.27;7.95;;;28.40;78.80;;;;;;4997953;28;90602;-33
2023/09/08 10:39:35;;;;;;;11.52;7.03;;;28.30;78.90;;;;;;4978628;28;90745;-31
2023/09/08 10:42:19;;;;;;;6.53;5.87;;;28.30;80.80;;;;;;4998512;28;88866;-34
2023/09/08 10:45:01;;;;;;;7.43;6.70;;;28.30;77.80;;;;;;4992378;28;88387;-35
2023/09/08 10:47:34;;;;;;;7.68;7.07;;;28.40;80.40;;;;;;4997283;28;90460;-36
2023/09/08 10:50:00;;;;;;;6.55;5.95;;;28.50;80.50;;;;;;4998757;28;90062;-34
2023/09/08 10:52:26;;;;;;;7.75;7.03;;;28.50;80.00;;;;;;4993511;28;89549;-35
2023/09/08 10:54:54;;;;;;;7.82;7.15;;;28.50;80.50;;;;;;4998681;28;90063;-34
2023/09/08 10:57:22;;;;;;;8.60;7.47;;;28.40;79.90;;;;;;4997833;28;90087;-34
2023/09/08 11:00:00;;;;;;;7.88;7.18;;;28.50;82.40;;;;;;4997180;28;89568;-37
2023/09/08 11:02:35;;;;;;;7.63;6.85;;;28.50;78.90;;;;;;4997079;28;89105;-35
2023/09/08 11:05:04;;;;;;;8.00;7.30;;;28.50;80.30;;;;;;4998288;28;90017;-32
2023/09/08 11:07:31;;;;;;;6.80;6.20;;;28.40;80.90;;;;;;4997057;28;90101;-35
2023/09/08 11:09:57;;;;;;;9.50;6.57;;;28.50;79.50;;;;;;4997500;28;91079;-33
2023/09/08 11:12:25;;;;;;;9.82;6.63;;;28.60;77.20;;;;;;4997520;28;89519;-33
2023/09/08 11:14:51;;;;;;;9.45;6.20;;;28.50;75.90;;;;;;4997759;28;88544;-34
2023/09/08 11:17:16;;;;;;;6.80;6.10;;;28.40;77.70;;;;;;4996453;28;91585;-33
2023/09/08 11:19:47;;;;;;;7.63;6.70;;;28.60;77.00;;;;;;4997123;28;90083;-35
2023/09/08 11:22:13;;;;;;;11.45;6.57;;;28.60;76.00;;;;;;4978328;28;90196;-35
2023/09/08 11:24:41;;;;;;;7.93;7.13;;;28.70;75.70;;;;;;4998213;28;89177;-32
2023/09/08 11:27:06;;;;;;;;;;;28.70;75.70;;;;;;4979737;28;90191;-34
2023/09/08 11:29:32;;;;;;;7.28;6.60;;;28.70;75.10;;;;;;4997849;28;90717;-37
2023/09/08 11:31:58;;;;;;;12.93;6.28;;;28.50;74.80;;;;;;4997286;28;89485;-34
2023/09/08 11:34:24;;;;;;;7.97;7.20;;;28.60;75.20;;;;;;4997069;28;89115;-35
2023/09/08 11:36:51;;;;;;;9.48;7.18;;;28.60;74.40;;;;;;4996959;28;89916;-37
2023/09/08 11:39:17;;;;;;;7.53;6.80;;;28.70;73.40;;;;;;4996564;28;91007;-34
2023/09/08 11:41:43;;;;;;;7.53;6.20;;;28.70;74.40;;;;;;4996946;28;89288;-34
2023/09/08 11:44:08;;;;;;;7.57;6.20;;;28.70;74.40;;;;;;4997735;28;89648;-37
2023/09/08 11:46:34;;;;;;;6.57;5.95;;;28.70;75.00;;;;;;4993879;28;90155;-35
2023/09/08 11:48:59;;;;;;;6.43;5.93;;;28.70;73.80;;;;;;4997008;28;89798;-36
2023/09/08 11:51:26;;;;;;;13.25;6.55;;;28.80;73.80;;;;;;4997321;28;90478;-32
2023/09/08 11:53:52;;;;;;;7.22;6.38;;;28.80;73.80;;;;;;4995861;28;88759;-35
2023/09/08 11:56:18;;;;;;;8.45;6.28;;;28.80;74.40;;;;;;4996909;28;90528;-36
2023/09/08 11:58:44;;;;;;;6.93;6.22;;;28.80;75.00;;;;;;4997193;28;90525;-32
2023/09/08 12:01:10;;;;;;;7.68;6.93;;;28.70;75.40;;;;;;4995045;28;90284;-34
2023/09/08 12:03:51;;;;;;;9.48;6.20;;;28.80;73.90;;;;;;4998209;28;89948;-36
2023/09/08 12:06:17;;;;;;;10.95;7.43;;;28.70;74.20;;;;;;4996042;28;90021;-37
2023/09/08 12:08:44;;;;;;;9.30;6.85;;;28.60;74.60;;;;;;4985124;28;89861;-35
2023/09/08 12:11:10;;;;;;;7.90;6.40;;;28.70;73.90;;;;;;4985345;28;89786;-35
2023/09/08 12:13:35;;;;;;;8.80;6.82;;;28.70;73.90;;;;;;4985244;28;87966;-35
2023/09/08 12:16:01;;;;;;;6.15;5.65;;;28.80;74.30;;;;;;4995129;28;90196;-37
2023/09/08 12:18:40;;;;;;;7.88;6.85;;;28.80;73.40;;;;;;4982764;28;91830;-37
2023/09/08 12:21:06;;;;;;;8.27;6.35;;;28.90;72.60;;;;;;4995649;28;91033;-36
2023/09/08 12:23:31;;;;;;;7.05;6.43;;;28.90;73.40;;;;;;4996642;28;90019;-36
2023/09/08 12:25:57;;;;;;;7.18;6.40;;;29.00;73.70;;;;;;4987903;28;90301;-37
2023/09/08 12:28:30;;;;;;;7.65;6.20;;;29.00;73.70;;;;;;4991459;28;89789;-36
2023/09/08 12:30:55;;;;;;;11.07;6.82;;;29.00;72.60;;;;;;4996029;28;89650;-33